createdAt,value
2022-11-25T00:03:57.853Z,-0.39
2022-11-25T00:09:04.724Z,-0.44
2022-11-25T00:14:12.607Z,-0.47
2022-11-25T00:19:15.895Z,-0.45
2022-11-25T00:24:19.110Z,-0.43
2022-11-25T00:29:22.443Z,-0.43
2022-11-25T00:34:25.711Z,-0.45
2022-11-25T00:39:29.096Z,-0.49
2022-11-25T00:44:42.262Z,-0.54
2022-11-25T00:49:51.677Z,-0.56
2022-11-25T00:54:55.349Z,-0.56
2022-11-25T00:59:58.581Z,-0.54
2022-11-25T01:05:02.281Z,-0.54
2022-11-25T01:10:06.271Z,-0.56
2022-11-25T01:15:09.978Z,-0.56
2022-11-25T01:20:15.318Z,-0.54
2022-11-25T01:25:18.424Z,-0.55
2022-11-25T01:30:21.634Z,-0.55
2022-11-25T01:35:24.845Z,-0.56
2022-11-25T01:40:28.022Z,-0.55
2022-11-25T01:45:37.206Z,-0.55
2022-11-25T01:50:42.839Z,-0.54
2022-11-25T01:55:54.167Z,-0.59
2022-11-25T02:00:57.435Z,-0.64
2022-11-25T02:06:17.220Z,-0.67
2022-11-25T02:11:23.397Z,-0.66
2022-11-25T02:16:26.900Z,-0.70
2022-11-25T02:21:40.589Z,-0.74
2022-11-25T02:26:44.021Z,-0.79
2022-11-25T02:31:51.460Z,-0.82
2022-11-25T02:36:55.134Z,-0.83
2022-11-25T02:42:00.603Z,-0.84
2022-11-25T02:47:03.926Z,-0.87
2022-11-25T02:52:07.164Z,-0.88
2022-11-25T02:57:10.347Z,-0.92
2022-11-25T03:02:13.617Z,-0.93
2022-11-25T03:07:16.923Z,-0.97
2022-11-25T03:12:20.383Z,-1.00
2022-11-25T03:17:23.553Z,-1.02
2022-11-25T03:22:26.807Z,-1.05
2022-11-25T03:27:30.499Z,-1.09
2022-11-25T03:32:34.280Z,-1.12
2022-11-25T03:37:38.386Z,-1.11
2022-11-25T03:42:41.841Z,-1.09
2022-11-25T03:47:46.293Z,-1.07
2022-11-25T03:52:49.630Z,-1.06
2022-11-25T03:57:52.796Z,-1.07
2022-11-25T04:02:56.125Z,-1.08
2022-11-25T04:07:59.406Z,-1.06
2022-11-25T04:13:02.651Z,-1.03
2022-11-25T04:18:05.770Z,-0.98
2022-11-25T04:23:10.016Z,-0.94
2022-11-25T04:28:13.188Z,-0.94
2022-11-25T04:33:16.430Z,-0.94
2022-11-25T04:38:19.549Z,-0.97
2022-11-25T04:43:23.362Z,-0.97
2022-11-25T04:48:26.609Z,-0.96
2022-11-25T04:53:29.917Z,-0.96
2022-11-25T04:58:51.753Z,-0.96
2022-11-25T05:03:57.629Z,-0.97
2022-11-25T05:09:01.441Z,-0.96
2022-11-25T05:14:04.993Z,-0.93
2022-11-25T05:19:08.232Z,-0.92
2022-11-25T05:24:11.704Z,-0.90
2022-11-25T05:29:14.949Z,-0.90
2022-11-25T05:34:18.660Z,-0.92
2022-11-25T05:39:22.609Z,-0.95
2022-11-25T05:44:27.865Z,-0.95
2022-11-25T05:49:30.974Z,-0.97
2022-11-25T05:54:34.428Z,-0.93
2022-11-25T05:59:37.973Z,-0.92
2022-11-25T06:04:41.158Z,-0.92
2022-11-25T06:09:44.387Z,-0.95
2022-11-25T06:14:48.639Z,-0.96
2022-11-25T06:19:51.839Z,-0.98
2022-11-25T06:25:01.922Z,-0.95
2022-11-25T06:30:07.903Z,-0.95
2022-11-25T06:35:11.302Z,-0.93
2022-11-25T06:40:14.540Z,-0.92
2022-11-25T06:45:17.866Z,-0.94
2022-11-25T06:50:21.150Z,-0.98
2022-11-25T06:55:24.348Z,-0.97
2022-11-25T07:00:27.563Z,-0.95
2022-11-25T07:05:31.408Z,-0.94
2022-11-25T07:10:35.258Z,-0.97
2022-11-25T07:15:38.691Z,-0.95
2022-11-25T07:20:42.062Z,-0.89
2022-11-25T07:25:45.245Z,-0.84
2022-11-25T07:31:22.810Z,-0.81
2022-11-25T07:36:13.709Z,-0.74
2022-11-25T07:41:26.811Z,-0.63
2022-11-25T07:46:38.558Z,-0.53
2022-11-25T07:51:43.749Z,-0.45
2022-11-25T07:56:49.024Z,-0.38
2022-11-25T08:01:54.294Z,-0.32
2022-11-25T08:06:59.202Z,-0.27
2022-11-25T08:12:02.370Z,-0.23
2022-11-25T08:17:06.315Z,-0.14
2022-11-25T08:22:09.670Z,-0.05
2022-11-25T08:27:19.663Z,0.02
2022-11-25T08:32:25.856Z,0.09
2022-11-25T08:37:31.436Z,0.15
2022-11-25T08:42:34.674Z,0.19
2022-11-25T08:47:38.275Z,0.22
2022-11-25T08:52:42.754Z,0.31
2022-11-25T08:57:45.993Z,0.38
2022-11-25T09:02:50.283Z,0.50
2022-11-25T09:07:56.794Z,0.60
2022-11-25T09:13:03.231Z,0.66
2022-11-25T09:18:08.974Z,0.69
2022-11-25T09:23:12.323Z,0.66
2022-11-25T09:28:18.078Z,0.72
2022-11-25T09:33:21.304Z,0.77
2022-11-25T09:38:25.099Z,0.77
2022-11-25T09:44:05.258Z,0.76
2022-11-25T09:49:31.087Z,0.79
2022-11-25T09:54:42.696Z,0.86
2022-11-25T09:59:58.991Z,0.91
2022-11-25T10:05:14.140Z,0.93
2022-11-25T10:10:27.551Z,0.92
2022-11-25T10:15:39.842Z,0.92
2022-11-25T10:20:44.209Z,0.95
2022-11-25T10:25:53.863Z,0.99
2022-11-25T10:31:19.397Z,0.98
2022-11-25T10:36:27.908Z,0.96
2022-11-25T10:41:43.558Z,0.94
2022-11-25T10:47:13.463Z,0.92
2022-11-25T10:52:23.573Z,0.88
2022-11-25T10:57:30.120Z,0.87
2022-11-25T11:02:34.939Z,0.87
2022-11-25T11:07:45.094Z,0.89
2022-11-25T11:13:22.664Z,0.90
2022-11-25T11:18:38.360Z,0.92
2022-11-25T11:23:55.867Z,0.97
2022-11-25T11:29:02.907Z,1.01
2022-11-25T11:34:24.592Z,1.03
2022-11-25T11:39:49.475Z,1.03
2022-11-25T11:45:02.844Z,1.02
2022-11-25T11:50:08.838Z,1.05
2022-11-25T11:55:37.259Z,1.09
2022-11-25T12:01:01.197Z,1.07
2022-11-25T12:06:06.882Z,1.05
2022-11-25T12:11:18.221Z,1.04
2022-11-25T12:16:33.718Z,1.02
2022-11-25T12:21:56.140Z,0.99
2022-11-25T12:27:05.677Z,0.95
2022-11-25T12:32:34.666Z,0.94
2022-11-25T12:38:03.671Z,0.99
2022-11-25T12:43:40.982Z,1.03
2022-11-25T12:48:44.870Z,1.08
2022-11-25T12:54:18.002Z,1.10
2022-11-25T13:00:32.747Z,1.08
2022-11-25T13:06:01.514Z,1.09
2022-11-25T13:11:28.570Z,1.09
2022-11-25T13:16:33.129Z,1.07
2022-11-25T13:21:36.886Z,1.03
2022-11-25T13:26:48.022Z,1.01
2022-11-25T13:32:03.241Z,0.99
2022-11-25T13:37:37.697Z,0.98
2022-11-25T13:42:44.949Z,0.96
2022-11-25T13:47:50.638Z,0.93
2022-11-25T13:53:07.408Z,0.89
2022-11-25T13:58:10.540Z,0.85
2022-11-25T14:03:20.057Z,0.81
2022-11-25T14:08:43.590Z,0.79
2022-11-25T14:14:01.806Z,0.76
2022-11-25T14:19:52.033Z,0.75
2022-11-25T14:25:22.564Z,0.74
2022-11-25T14:30:26.447Z,0.71
2022-11-25T14:35:53.981Z,0.69
2022-11-25T14:41:13.573Z,0.68
2022-11-25T14:46:21.017Z,0.65
2022-11-25T14:51:47.824Z,0.63
2022-11-25T14:56:51.842Z,0.60
2022-11-25T15:01:55.801Z,0.59
2022-11-25T15:07:02.334Z,0.56
2022-11-25T15:12:12.008Z,0.52
2022-11-25T15:17:33.285Z,0.51
2022-11-25T15:22:36.818Z,0.51
2022-11-25T15:27:46.688Z,0.50
2022-11-25T15:32:51.576Z,0.49
2022-11-25T15:37:54.881Z,0.49
2022-11-25T15:43:01.088Z,0.45
2022-11-25T15:48:05.291Z,0.43
2022-11-25T15:53:09.160Z,0.43
2022-11-25T15:58:20.133Z,0.42
2022-11-25T16:03:24.159Z,0.39
2022-11-25T16:08:37.504Z,0.36
2022-11-25T16:13:40.758Z,0.38
2022-11-25T16:19:02.456Z,0.40
2022-11-25T16:24:05.664Z,0.42
2022-11-25T16:29:18.801Z,0.43
2022-11-25T16:34:24.538Z,0.41
2022-11-25T16:39:27.759Z,0.40
2022-11-25T16:44:36.674Z,0.38
2022-11-25T16:49:40.050Z,0.35
2022-11-25T16:54:43.862Z,0.33
2022-11-25T16:59:53.090Z,0.31
2022-11-25T17:05:07.046Z,0.29
2022-11-25T17:10:11.779Z,0.29
2022-11-25T17:15:23.872Z,0.31
2022-11-25T17:20:28.025Z,0.34
2022-11-25T17:25:37.119Z,0.35
2022-11-25T17:30:41.046Z,0.36
2022-11-25T17:35:44.731Z,0.38
2022-11-25T17:40:48.650Z,0.40
2022-11-25T17:45:52.007Z,0.41
2022-11-25T17:50:55.353Z,0.44
2022-11-25T17:55:58.589Z,0.46
2022-11-25T18:01:02.476Z,0.47
2022-11-25T18:06:06.940Z,0.47
2022-11-25T18:11:15.287Z,0.47
2022-11-25T18:16:20.139Z,0.48
2022-11-25T18:21:26.578Z,0.45
2022-11-25T18:26:29.840Z,0.42
2022-11-25T18:31:33.002Z,0.40
2022-11-25T18:36:36.312Z,0.39
2022-11-25T18:41:41.298Z,0.39
2022-11-25T18:46:44.579Z,0.36
2022-11-25T18:51:48.495Z,0.35
2022-11-25T18:56:52.768Z,0.37
2022-11-25T19:01:56.031Z,0.39
2022-11-25T19:06:59.389Z,0.41
2022-11-25T19:12:03.625Z,0.42
2022-11-25T19:17:09.829Z,0.45
2022-11-25T19:22:15.557Z,0.47
2022-11-25T19:27:26.667Z,0.48
2022-11-25T19:32:33.678Z,0.47
2022-11-25T19:37:36.961Z,0.48
2022-11-25T19:42:40.124Z,0.48
2022-11-25T19:47:50.131Z,0.50
2022-11-25T19:52:55.336Z,0.51
2022-11-25T19:57:58.894Z,0.53
2022-11-25T20:03:02.707Z,0.54
2022-11-25T20:08:06.859Z,0.52
2022-11-25T20:13:10.149Z,0.49
2022-11-25T20:18:20.565Z,0.47
2022-11-25T20:23:29.451Z,0.46
2022-11-25T20:28:33.147Z,0.46
2022-11-25T20:33:36.451Z,0.48
2022-11-25T20:38:44.383Z,0.48
2022-11-25T20:43:50.061Z,0.48
2022-11-25T20:49:02.679Z,0.49
2022-11-25T20:54:11.988Z,0.51
2022-11-25T20:59:28.735Z,0.53
2022-11-25T21:04:31.883Z,0.54
2022-11-25T21:09:36.830Z,0.55
2022-11-25T21:14:40.199Z,0.56
2022-11-25T21:19:43.712Z,0.59
2022-11-25T21:24:46.919Z,0.62
2022-11-25T21:29:50.265Z,0.62
2022-11-25T21:34:54.124Z,0.57
2022-11-25T21:39:59.554Z,0.55
2022-11-25T21:45:02.971Z,0.56
2022-11-25T21:50:14.766Z,0.56
2022-11-25T21:55:20.385Z,0.57
2022-11-25T22:00:26.019Z,0.55
2022-11-25T22:05:30.879Z,0.51
2022-11-25T22:10:34.157Z,0.52
2022-11-25T22:15:37.391Z,0.52
2022-11-25T22:20:41.482Z,0.52
2022-11-25T22:25:46.975Z,0.51
2022-11-25T22:30:53.748Z,0.50
2022-11-25T22:35:57.964Z,0.48
2022-11-25T22:41:04.108Z,0.44
2022-11-25T22:46:08.323Z,0.41
2022-11-25T22:51:21.551Z,0.39
2022-11-25T22:56:25.673Z,0.40
2022-11-25T23:01:28.900Z,0.45
2022-11-25T23:06:32.394Z,0.48
2022-11-25T23:11:39.858Z,0.52
2022-11-25T23:16:44.046Z,0.54
2022-11-25T23:21:47.472Z,0.52
2022-11-25T23:32:19.385Z,0.49
2022-11-25T23:37:22.829Z,0.45
2022-11-25T23:42:25.984Z,0.41
2022-11-25T23:47:29.230Z,0.40
2022-11-25T23:52:32.548Z,0.38
2022-11-25T23:57:35.817Z,0.38
